Etihad Airways Virtual Airport Information Service

Bahrain International Airport

ICAO: OBBI Country: Bahrain
Latitude: 26.2708 Longitude: 50.6336
Latest Arrival : ETD375 (OMAA-OBBI) Latest Departure : ETD376 (OBBI-OMAA)


WX CaptureLIVE
Data provided by noaa.gov | Recorded at 02:53:09

METAR : OBBI 170230Z 30011KT CAVOK 31/18 Q1002 NOSIG

TAF : OBBI 162300Z 1700/1806 30010KT 9000 NSC BECMG 1717/1720 25005KT TEMPO 1718/1806 4500 HZ


Runway Data for OBBI
Data provided by openaviationdata.com

Runway ID Mag Var Hdg Length Elevation Surface ILS Freq ILS Id ILS Slope

Bahrain International Airport, Bahrain
Use only for reference purposes